Airfield :
LOGIN :

Register | Disclaimer

   EN    FR    IT 

 










Legend :    VFR   Marginal VFR   IFR   Intensive IFR   Very Intensive IFR
Visi :
Ceiling :
>= 8 km
>= 3000ft
5 to 8 km
1000 to 3000 ft
1500m to 5 km
500 to 1000 ft
800 to 1500m
200 to 500 ft
< 800m
< 200 ft
Symbols :   Thunderstorms  Fog  Heavy snow  Heavy precipitations  Wind > 20 kt
SIGMETs :     Misc.  Thunderstorms  Icing  Turbulence  Mountain Waves  Volcanic Ashes






- Airport Elevation : 28 ft
- IATA code : SOZ


LFKS - Solenzara

CURRENT METAR :
  • 270930Z AUTO 26011KT 230V300 9999 ///TCU 19/04 Q1010

EXPIRED METARs :
  • 270900Z AUTO 25006KT 190V310 CAVOK 19/03 Q1010
  • 270830Z AUTO 27009KT 200V340 CAVOK 19/04 Q1009
  • 270800Z AUTO 27005KT 210V360 CAVOK 19/04 Q1009
  • 270730Z AUTO 28004KT 240V340 CAVOK 18/03 Q1009
  • 270700Z AUTO VRB03KT CAVOK 17/04 Q1009

TAF TAF LFKS
Valid from the 27 at 09:00 until the 28 at 09:00 UTC


270800Z 2709/2809 26015G25KT CAVOK
TEMPO 2709/2718 27020G30KT
BECMG 2718/2720 27010KT



MET'MAP, your aeronautical weather chart ! - Copyright ORBIFLY December 2007 - Disclaimer

ORBIFLY MET'MAP TEAM :

Programming & Development : Alexandra Zaïnal
Concept & original design : Baudouin d'Aumeries
Assistance for programming : Marc-Olivier Méhu
Technical & hardware support : Manuel Goepfert

Contact : metmap@orbifly.com




SOURCES & CREDITS :

   NOAA